Terminal Aerodrome Forecast
Issued by NWS

Home | Current Version | Previous Version | Text Only | Print | Product List | Glossary On
Versions: 1 2 3 4 5 6 7 8 9 10 11 12 13 14 15 16 17 18 19 20 21 22 23
000
FTUS46 KPDT 191700 AAD
TAFYKM
TAF AMD
KYKM 191714Z 1917/2012 29003KT 5SM BR OVC010
     FM191800 VRB03KT 4SM BR OVC012
     FM192100 VRB03KT 6SM HZ OVC015
     FM200300 VRB03KT 4SM BR OVC009
     FM200900 22003KT 2SM -RA BR OVC004=

USA.gov is the U.S. government's official web portal to all federal, state and local government web resources and services.